sensor_id;sensor_type;location;lat;lon;timestamp;pressure;altitude;pressure_sealevel;temperature;humidity
4392;BME280;2210;51.938;8.488;2023-03-14T00:01:19;97999.63;;;11.03;100.00
4392;BME280;2210;51.938;8.488;2023-03-14T00:05:28;98014.44;;;11.07;100.00
4392;BME280;2210;51.938;8.488;2023-03-14T00:09:28;98037.63;;;11.06;100.00
4392;BME280;2210;51.938;8.488;2023-03-14T00:13:29;98048.16;;;11.04;100.00
4392;BME280;2210;51.938;8.488;2023-03-14T00:17:34;98045.38;;;11.04;100.00
4392;BME280;2210;51.938;8.488;2023-03-14T00:21:34;98037.81;;;10.96;100.00
4392;BME280;2210;51.938;8.488;2023-03-14T00:25:34;98038.38;;;10.93;100.00
4392;BME280;2210;51.938;8.488;2023-03-14T00:29:35;98055.22;;;10.91;100.00
4392;BME280;2210;51.938;8.488;2023-03-14T00:33:35;98046.75;;;10.88;100.00
4392;BME280;2210;51.938;8.488;2023-03-14T00:37:38;98033.16;;;10.77;100.00
4392;BME280;2210;51.938;8.488;2023-03-14T00:41:38;98038.66;;;10.77;100.00
4392;BME280;2210;51.938;8.488;2023-03-14T00:45:39;98030.31;;;10.83;100.00
4392;BME280;2210;51.938;8.488;2023-03-14T00:49:39;97997.88;;;10.93;100.00
4392;BME280;2210;51.938;8.488;2023-03-14T00:53:45;97998.06;;;10.97;100.00
4392;BME280;2210;51.938;8.488;2023-03-14T00:57:46;98018.50;;;10.96;100.00
4392;BME280;2210;51.938;8.488;2023-03-14T01:01:46;98014.03;;;11.00;100.00
4392;BME280;2210;51.938;8.488;2023-03-14T01:05:52;98016.19;;;11.03;100.00
4392;BME280;2210;51.938;8.488;2023-03-14T01:10:09;98016.91;;;11.09;100.00
4392;BME280;2210;51.938;8.488;2023-03-14T01:14:13;98009.97;;;11.11;100.00
4392;BME280;2210;51.938;8.488;2023-03-14T01:18:14;97994.53;;;11.10;100.00
4392;BME280;2210;51.938;8.488;2023-03-14T01:22:14;97987.28;;;11.14;100.00
4392;BME280;2210;51.938;8.488;2023-03-14T01:26:17;97971.38;;;11.11;100.00
4392;BME280;2210;51.938;8.488;2023-03-14T01:30:22;97961.53;;;11.05;100.00
4392;BME280;2210;51.938;8.488;2023-03-14T01:34:22;97944.09;;;10.96;100.00
4392;BME280;2210;51.938;8.488;2023-03-14T01:38:22;97959.31;;;11.07;100.00
4392;BME280;2210;51.938;8.488;2023-03-14T01:42:22;97978.84;;;11.11;100.00
4392;BME280;2210;51.938;8.488;2023-03-14T01:46:30;97962.69;;;11.04;100.00
4392;BME280;2210;51.938;8.488;2023-03-14T01:50:35;97960.41;;;11.06;100.00
4392;BME280;2210;51.938;8.488;2023-03-14T01:54:36;97963.50;;;11.19;100.00
4392;BME280;2210;51.938;8.488;2023-03-14T01:58:38;97955.22;;;11.19;100.00
4392;BME280;2210;51.938;8.488;2023-03-14T02:03:06;97950.56;;;11.19;100.00
4392;BME280;2210;51.938;8.488;2023-03-14T02:07:33;97939.31;;;11.16;100.00
4392;BME280;2210;51.938;8.488;2023-03-14T02:11:36;97928.28;;;11.16;100.00
4392;BME280;2210;51.938;8.488;2023-03-14T02:15:40;97939.09;;;11.12;100.00
4392;BME280;2210;51.938;8.488;2023-03-14T02:24:29;97961.53;;;11.05;100.00
4392;BME280;2210;51.938;8.488;2023-03-14T02:28:32;98004.56;;;10.73;100.00
4392;BME280;2210;51.938;8.488;2023-03-14T02:32:34;97999.50;;;10.04;100.00
4392;BME280;2210;51.938;8.488;2023-03-14T02:36:39;98015.28;;;9.74;100.00
4392;BME280;2210;51.938;8.488;2023-03-14T02:40:58;98000.03;;;9.63;100.00
4392;BME280;2210;51.938;8.488;2023-03-14T02:49:10;97983.94;;;9.27;100.00
4392;BME280;2210;51.938;8.488;2023-03-14T02:53:15;97981.28;;;9.17;100.00
4392;BME280;2210;51.938;8.488;2023-03-14T02:57:16;97984.38;;;9.10;100.00
4392;BME280;2210;51.938;8.488;2023-03-14T03:01:19;97984.66;;;9.08;100.00
4392;BME280;2210;51.938;8.488;2023-03-14T03:05:23;97980.00;;;9.09;100.00
4392;BME280;2210;51.938;8.488;2023-03-14T03:09:23;97978.94;;;9.05;100.00
4392;BME280;2210;51.938;8.488;2023-03-14T03:13:33;97981.94;;;9.03;100.00
4392;BME280;2210;51.938;8.488;2023-03-14T03:17:33;97975.41;;;8.99;100.00
4392;BME280;2210;51.938;8.488;2023-03-14T03:21:33;97974.59;;;8.99;100.00
4392;BME280;2210;51.938;8.488;2023-03-14T03:25:34;97960.09;;;8.93;100.00
4392;BME280;2210;51.938;8.488;2023-03-14T03:29:35;97967.22;;;8.94;100.00
4392;BME280;2210;51.938;8.488;2023-03-14T03:33:36;97963.94;;;8.92;100.00
4392;BME280;2210;51.938;8.488;2023-03-14T03:37:37;97967.88;;;8.86;100.00
4392;BME280;2210;51.938;8.488;2023-03-14T03:41:37;97964.56;;;8.84;100.00
4392;BME280;2210;51.938;8.488;2023-03-14T03:45:37;97970.63;;;8.86;100.00
4392;BME280;2210;51.938;8.488;2023-03-14T03:49:37;97967.91;;;8.81;100.00
4392;BME280;2210;51.938;8.488;2023-03-14T03:53:38;97961.81;;;8.84;100.00
4392;BME280;2210;51.938;8.488;2023-03-14T03:57:50;97965.63;;;8.88;100.00
4392;BME280;2210;51.938;8.488;2023-03-14T04:01:53;97969.47;;;8.87;100.00
4392;BME280;2210;51.938;8.488;2023-03-14T04:06:20;97957.31;;;8.98;100.00
4392;BME280;2210;51.938;8.488;2023-03-14T04:10:20;97956.25;;;8.94;100.00
4392;BME280;2210;51.938;8.488;2023-03-14T04:14:21;97953.00;;;8.87;100.00
4392;BME280;2210;51.938;8.488;2023-03-14T04:18:22;97953.00;;;8.87;100.00
4392;BME280;2210;51.938;8.488;2023-03-14T04:22:24;97952.53;;;8.80;100.00
4392;BME280;2210;51.938;8.488;2023-03-14T04:26:27;97947.06;;;8.74;100.00
4392;BME280;2210;51.938;8.488;2023-03-14T04:30:30;97942.97;;;8.72;100.00
4392;BME280;2210;51.938;8.488;2023-03-14T04:34:31;97935.28;;;8.74;100.00
4392;BME280;2210;51.938;8.488;2023-03-14T04:38:31;97929.28;;;8.67;100.00
4392;BME280;2210;51.938;8.488;2023-03-14T04:42:32;97915.28;;;8.68;100.00
4392;BME280;2210;51.938;8.488;2023-03-14T04:46:32;97925.72;;;8.66;100.00
4392;BME280;2210;51.938;8.488;2023-03-14T04:50:33;97918.53;;;8.70;100.00
4392;BME280;2210;51.938;8.488;2023-03-14T04:54:33;97915.03;;;8.65;100.00
4392;BME280;2210;51.938;8.488;2023-03-14T04:58:33;97896.91;;;8.64;100.00
4392;BME280;2210;51.938;8.488;2023-03-14T05:02:34;97893.94;;;8.60;100.00
4392;BME280;2210;51.938;8.488;2023-03-14T05:06:35;97898.56;;;8.65;100.00
4392;BME280;2210;51.938;8.488;2023-03-14T05:10:35;97896.09;;;8.63;100.00
4392;BME280;2210;51.938;8.488;2023-03-14T05:14:35;97899.38;;;8.65;100.00
4392;BME280;2210;51.938;8.488;2023-03-14T05:18:36;97893.38;;;8.63;100.00
4392;BME280;2210;51.938;8.488;2023-03-14T05:22:36;97895.22;;;8.68;100.00
4392;BME280;2210;51.938;8.488;2023-03-14T05:26:36;97898.81;;;8.68;100.00
4392;BME280;2210;51.938;8.488;2023-03-14T05:30:36;97890.28;;;8.70;100.00
4392;BME280;2210;51.938;8.488;2023-03-14T05:34:40;97881.19;;;8.69;100.00
4392;BME280;2210;51.938;8.488;2023-03-14T05:38:40;97881.69;;;8.76;100.00
4392;BME280;2210;51.938;8.488;2023-03-14T05:42:40;97866.47;;;8.84;100.00
4392;BME280;2210;51.938;8.488;2023-03-14T05:46:40;97874.66;;;8.89;100.00
4392;BME280;2210;51.938;8.488;2023-03-14T05:50:41;97869.19;;;8.89;100.00
4392;BME280;2210;51.938;8.488;2023-03-14T05:54:41;97879.06;;;8.90;100.00
4392;BME280;2210;51.938;8.488;2023-03-14T05:58:41;97880.47;;;8.88;100.00
4392;BME280;2210;51.938;8.488;2023-03-14T06:02:41;97868.13;;;8.85;100.00
4392;BME280;2210;51.938;8.488;2023-03-14T06:06:42;97873.22;;;8.73;100.00
4392;BME280;2210;51.938;8.488;2023-03-14T06:10:42;97868.09;;;8.61;100.00
4392;BME280;2210;51.938;8.488;2023-03-14T06:14:42;97865.34;;;8.61;100.00
4392;BME280;2210;51.938;8.488;2023-03-14T06:18:45;97874.72;;;8.60;100.00
4392;BME280;2210;51.938;8.488;2023-03-14T06:22:49;97880.78;;;8.57;100.00
4392;BME280;2210;51.938;8.488;2023-03-14T06:26:52;97887.97;;;8.53;100.00
4392;BME280;2210;51.938;8.488;2023-03-14T06:30:52;97892.69;;;8.47;100.00
4392;BME280;2210;51.938;8.488;2023-03-14T06:35:02;97896.59;;;8.36;100.00
4392;BME280;2210;51.938;8.488;2023-03-14T06:39:05;97878.78;;;8.33;100.00
4392;BME280;2210;51.938;8.488;2023-03-14T06:43:05;97885.06;;;8.34;100.00
4392;BME280;2210;51.938;8.488;2023-03-14T06:47:06;97886.69;;;8.40;100.00
4392;BME280;2210;51.938;8.488;2023-03-14T06:51:06;97880.91;;;8.41;100.00
4392;BME280;2210;51.938;8.488;2023-03-14T06:55:07;97884.75;;;8.40;100.00
4392;BME280;2210;51.938;8.488;2023-03-14T06:59:12;97889.94;;;8.42;100.00
4392;BME280;2210;51.938;8.488;2023-03-14T07:03:13;97894.63;;;8.41;100.00
4392;BME280;2210;51.938;8.488;2023-03-14T07:07:13;97891.13;;;8.36;100.00
4392;BME280;2210;51.938;8.488;2023-03-14T07:11:14;97894.66;;;8.36;100.00
4392;BME280;2210;51.938;8.488;2023-03-14T07:15:14;97893.59;;;8.32;100.00
4392;BME280;2210;51.938;8.488;2023-03-14T07:19:14;97887.81;;;8.34;100.00
4392;BME280;2210;51.938;8.488;2023-03-14T07:23:14;97895.22;;;8.38;100.00
4392;BME280;2210;51.938;8.488;2023-03-14T07:27:15;97898.47;;;8.40;100.00
4392;BME280;2210;51.938;8.488;2023-03-14T07:31:15;97885.22;;;8.53;100.00
4392;BME280;2210;51.938;8.488;2023-03-14T07:35:15;97887.88;;;8.63;100.00
4392;BME280;2210;51.938;8.488;2023-03-14T07:39:16;97895.56;;;8.61;100.00
4392;BME280;2210;51.938;8.488;2023-03-14T07:43:16;97895.00;;;8.64;100.00
4392;BME280;2210;51.938;8.488;2023-03-14T07:47:16;97894.72;;;8.66;100.00
4392;BME280;2210;51.938;8.488;2023-03-14T07:51:16;97891.63;;;8.72;100.00
4392;BME280;2210;51.938;8.488;2023-03-14T07:55:17;97894.84;;;8.80;100.00
4392;BME280;2210;51.938;8.488;2023-03-14T07:59:18;97891.00;;;8.81;100.00
4392;BME280;2210;51.938;8.488;2023-03-14T08:03:18;97891.75;;;8.86;100.00
4392;BME280;2210;51.938;8.488;2023-03-14T08:07:19;97890.88;;;8.91;100.00
4392;BME280;2210;51.938;8.488;2023-03-14T08:11:19;97892.16;;;8.99;100.00
4392;BME280;2210;51.938;8.488;2023-03-14T08:15:19;97898.34;;;9.09;100.00
4392;BME280;2210;51.938;8.488;2023-03-14T08:19:19;97898.25;;;9.20;100.00
4392;BME280;2210;51.938;8.488;2023-03-14T08:23:20;97903.97;;;9.23;100.00
4392;BME280;2210;51.938;8.488;2023-03-14T08:27:21;97900.66;;;9.26;100.00
4392;BME280;2210;51.938;8.488;2023-03-14T08:31:24;97899.75;;;9.31;100.00
4392;BME280;2210;51.938;8.488;2023-03-14T08:35:27;97905.13;;;9.41;100.00
4392;BME280;2210;51.938;8.488;2023-03-14T08:39:30;97907.59;;;9.43;100.00
4392;BME280;2210;51.938;8.488;2023-03-14T08:43:34;97906.75;;;9.42;100.00
4392;BME280;2210;51.938;8.488;2023-03-14T08:47:37;97902.88;;;9.43;100.00
4392;BME280;2210;51.938;8.488;2023-03-14T08:51:44;97901.06;;;9.58;100.00
4392;BME280;2210;51.938;8.488;2023-03-14T08:55:47;97899.81;;;9.69;100.00
4392;BME280;2210;51.938;8.488;2023-03-14T08:59:47;97907.75;;;9.71;100.00
4392;BME280;2210;51.938;8.488;2023-03-14T09:03:47;97908.50;;;9.76;100.00
4392;BME280;2210;51.938;8.488;2023-03-14T09:07:48;97893.31;;;9.79;100.00
4392;BME280;2210;51.938;8.488;2023-03-14T09:11:55;97909.16;;;9.87;100.00
4392;BME280;2210;51.938;8.488;2023-03-14T09:16:01;97896.06;;;9.98;100.00
4392;BME280;2210;51.938;8.488;2023-03-14T09:20:03;97901.88;;;10.16;100.00
4392;BME280;2210;51.938;8.488;2023-03-14T09:24:06;97897.69;;;10.18;100.00
4392;BME280;2210;51.938;8.488;2023-03-14T09:28:07;97894.34;;;10.21;100.00
4392;BME280;2210;51.938;8.488;2023-03-14T09:32:10;97902.31;;;10.23;100.00
4392;BME280;2210;51.938;8.488;2023-03-14T09:36:10;97898.28;;;10.34;100.00
4392;BME280;2210;51.938;8.488;2023-03-14T09:40:16;97917.03;;;10.32;100.00
4392;BME280;2210;51.938;8.488;2023-03-14T09:44:21;97900.38;;;10.23;100.00
4392;BME280;2210;51.938;8.488;2023-03-14T09:48:27;97910.34;;;10.38;100.00
4392;BME280;2210;51.938;8.488;2023-03-14T09:52:32;97899.69;;;10.51;100.00
4392;BME280;2210;51.938;8.488;2023-03-14T09:56:33;97907.56;;;10.57;100.00
4392;BME280;2210;51.938;8.488;2023-03-14T10:00:35;97916.22;;;10.65;100.00
4392;BME280;2210;51.938;8.488;2023-03-14T10:04:35;97913.63;;;10.73;100.00
4392;BME280;2210;51.938;8.488;2023-03-14T10:08:45;97919.00;;;10.65;100.00
4392;BME280;2210;51.938;8.488;2023-03-14T10:13:21;97929.47;;;10.49;100.00
4392;BME280;2210;51.938;8.488;2023-03-14T10:17:24;97939.03;;;10.32;100.00
4392;BME280;2210;51.938;8.488;2023-03-14T10:21:29;97947.69;;;10.25;100.00
4392;BME280;2210;51.938;8.488;2023-03-14T10:25:37;97951.88;;;10.23;100.00
4392;BME280;2210;51.938;8.488;2023-03-14T10:29:51;97948.59;;;10.21;100.00
4392;BME280;2210;51.938;8.488;2023-03-14T10:34:01;97959.59;;;10.21;100.00
4392;BME280;2210;51.938;8.488;2023-03-14T10:38:04;97954.72;;;10.18;100.00
4392;BME280;2210;51.938;8.488;2023-03-14T10:42:12;98046.94;;;9.72;100.00
4392;BME280;2210;51.938;8.488;2023-03-14T10:46:17;98066.59;;;8.67;100.00
4392;BME280;2210;51.938;8.488;2023-03-14T10:50:26;98076.72;;;8.32;100.00
4392;BME280;2210;51.938;8.488;2023-03-14T10:54:30;98089.38;;;8.22;100.00
4392;BME280;2210;51.938;8.488;2023-03-14T10:58:40;98103.22;;;7.97;100.00
4392;BME280;2210;51.938;8.488;2023-03-14T11:02:56;98112.81;;;7.99;100.00
4392;BME280;2210;51.938;8.488;2023-03-14T11:07:15;98127.34;;;7.94;100.00
4392;BME280;2210;51.938;8.488;2023-03-14T11:11:26;98151.81;;;7.86;100.00
4392;BME280;2210;51.938;8.488;2023-03-14T11:16:14;98183.91;;;7.75;100.00
4392;BME280;2210;51.938;8.488;2023-03-14T11:24:53;98243.31;;;6.82;100.00
4392;BME280;2210;51.938;8.488;2023-03-14T11:29:19;98269.03;;;6.75;100.00
4392;BME280;2210;51.938;8.488;2023-03-14T11:33:50;98310.84;;;6.55;100.00
4392;BME280;2210;51.938;8.488;2023-03-14T11:37:52;98333.31;;;6.15;100.00
4392;BME280;2210;51.938;8.488;2023-03-14T11:41:57;98365.50;;;6.02;100.00
4392;BME280;2210;51.938;8.488;2023-03-14T11:46:04;98368.88;;;5.60;100.00
4392;BME280;2210;51.938;8.488;2023-03-14T11:50:27;98402.66;;;5.49;100.00
4392;BME280;2210;51.938;8.488;2023-03-14T11:58:38;98449.06;;;5.44;100.00
4392;BME280;2210;51.938;8.488;2023-03-14T12:06:56;98494.75;;;5.26;100.00
4392;BME280;2210;51.938;8.488;2023-03-14T12:11:05;98517.25;;;5.33;100.00
4392;BME280;2210;51.938;8.488;2023-03-14T12:15:20;98547.94;;;5.40;100.00
4392;BME280;2210;51.938;8.488;2023-03-14T12:23:21;98589.88;;;5.29;100.00
4392;BME280;2210;51.938;8.488;2023-03-14T12:27:45;98596.06;;;5.42;100.00
4392;BME280;2210;51.938;8.488;2023-03-14T12:31:48;98610.66;;;5.69;100.00
4392;BME280;2210;51.938;8.488;2023-03-14T12:35:57;98620.88;;;5.57;100.00
4392;BME280;2210;51.938;8.488;2023-03-14T12:48:31;98633.38;;;5.70;100.00
4392;BME280;2210;51.938;8.488;2023-03-14T12:57:26;98645.38;;;5.91;100.00
4392;BME280;2210;51.938;8.488;2023-03-14T13:01:28;98647.84;;;6.10;100.00
4392;BME280;2210;51.938;8.488;2023-03-14T13:05:29;98661.59;;;6.15;100.00
4392;BME280;2210;51.938;8.488;2023-03-14T13:13:29;98694.44;;;6.15;100.00
4392;BME280;2210;51.938;8.488;2023-03-14T13:17:34;98708.84;;;6.10;100.00
4392;BME280;2210;51.938;8.488;2023-03-14T13:21:35;98722.47;;;5.88;100.00
4392;BME280;2210;51.938;8.488;2023-03-14T13:25:37;98761.44;;;5.61;100.00
4392;BME280;2210;51.938;8.488;2023-03-14T13:29:37;98776.41;;;4.96;100.00
4392;BME280;2210;51.938;8.488;2023-03-14T13:33:40;98771.88;;;4.72;100.00
4392;BME280;2210;51.938;8.488;2023-03-14T13:37:40;98775.78;;;5.05;100.00
4392;BME280;2210;51.938;8.488;2023-03-14T13:41:41;98787.66;;;5.28;100.00
4392;BME280;2210;51.938;8.488;2023-03-14T13:45:56;98798.69;;;5.33;100.00
4392;BME280;2210;51.938;8.488;2023-03-14T13:50:00;98811.94;;;5.42;100.00
4392;BME280;2210;51.938;8.488;2023-03-14T13:54:01;98815.25;;;5.44;100.00
4392;BME280;2210;51.938;8.488;2023-03-14T13:58:26;98827.75;;;5.39;100.00
4392;BME280;2210;51.938;8.488;2023-03-14T14:02:36;98846.97;;;5.45;100.00
4392;BME280;2210;51.938;8.488;2023-03-14T14:06:43;98856.78;;;5.57;100.00
4392;BME280;2210;51.938;8.488;2023-03-14T14:10:47;98875.38;;;5.72;100.00
4392;BME280;2210;51.938;8.488;2023-03-14T14:15:14;98869.75;;;5.96;100.00
4392;BME280;2210;51.938;8.488;2023-03-14T14:19:17;98890.56;;;6.14;100.00
4392;BME280;2210;51.938;8.488;2023-03-14T14:23:21;98904.34;;;6.36;100.00
4392;BME280;2210;51.938;8.488;2023-03-14T14:27:48;98914.28;;;6.43;100.00
4392;BME280;2210;51.938;8.488;2023-03-14T14:40:20;98950.22;;;6.12;96.28
4392;BME280;2210;51.938;8.488;2023-03-14T14:44:32;98975.94;;;5.99;89.21
4392;BME280;2210;51.938;8.488;2023-03-14T14:48:37;98990.84;;;5.91;83.93
4392;BME280;2210;51.938;8.488;2023-03-14T14:52:42;99000.47;;;5.94;80.82
4392;BME280;2210;51.938;8.488;2023-03-14T14:56:49;99009.88;;;5.98;77.20
4392;BME280;2210;51.938;8.488;2023-03-14T15:00:56;99016.97;;;5.99;74.24
4392;BME280;2210;51.938;8.488;2023-03-14T15:05:03;99029.47;;;5.95;72.28
4392;BME280;2210;51.938;8.488;2023-03-14T15:09:10;99052.75;;;6.10;72.39
4392;BME280;2210;51.938;8.488;2023-03-14T15:13:11;99054.69;;;6.26;71.74
4392;BME280;2210;51.938;8.488;2023-03-14T15:17:11;99060.06;;;6.21;69.72
4392;BME280;2210;51.938;8.488;2023-03-14T15:21:12;99068.19;;;6.16;68.65
4392;BME280;2210;51.938;8.488;2023-03-14T15:25:12;99073.47;;;6.05;66.44
4392;BME280;2210;51.938;8.488;2023-03-14T15:29:13;99085.69;;;6.15;68.31
4392;BME280;2210;51.938;8.488;2023-03-14T15:33:13;99095.09;;;6.36;66.67
4392;BME280;2210;51.938;8.488;2023-03-14T15:37:26;99096.97;;;6.47;65.18
4392;BME280;2210;51.938;8.488;2023-03-14T15:41:27;99097.66;;;6.54;62.30
4392;BME280;2210;51.938;8.488;2023-03-14T15:45:28;99119.09;;;6.46;61.71
4392;BME280;2210;51.938;8.488;2023-03-14T15:49:29;99126.91;;;6.25;62.08
4392;BME280;2210;51.938;8.488;2023-03-14T15:53:30;99142.06;;;6.16;62.65
4392;BME280;2210;51.938;8.488;2023-03-14T15:57:33;99144.13;;;6.08;62.66
4392;BME280;2210;51.938;8.488;2023-03-14T16:01:33;99148.53;;;5.98;62.13
4392;BME280;2210;51.938;8.488;2023-03-14T16:05:39;99157.78;;;5.97;64.20
4392;BME280;2210;51.938;8.488;2023-03-14T16:09:46;99165.03;;;5.91;64.57
4392;BME280;2210;51.938;8.488;2023-03-14T16:13:46;99165.16;;;5.96;65.42
4392;BME280;2210;51.938;8.488;2023-03-14T16:17:46;99175.03;;;5.97;65.72
4392;BME280;2210;51.938;8.488;2023-03-14T16:21:47;99182.22;;;5.98;64.10
4392;BME280;2210;51.938;8.488;2023-03-14T16:25:47;99191.81;;;6.01;66.03
4392;BME280;2210;51.938;8.488;2023-03-14T16:29:47;99202.88;;;6.06;65.02
4392;BME280;2210;51.938;8.488;2023-03-14T16:33:48;99198.97;;;6.02;64.17
4392;BME280;2210;51.938;8.488;2023-03-14T16:37:48;99217.78;;;5.98;65.65
4392;BME280;2210;51.938;8.488;2023-03-14T16:41:49;99221.31;;;5.87;63.46
4392;BME280;2210;51.938;8.488;2023-03-14T16:45:49;99254.25;;;5.80;63.24
4392;BME280;2210;51.938;8.488;2023-03-14T16:49:49;99263.66;;;5.72;63.90
4392;BME280;2210;51.938;8.488;2023-03-14T16:53:52;99278.63;;;5.70;62.76
4392;BME280;2210;51.938;8.488;2023-03-14T16:57:53;99284.78;;;5.65;63.70
4392;BME280;2210;51.938;8.488;2023-03-14T17:01:54;99305.47;;;5.61;62.41
4392;BME280;2210;51.938;8.488;2023-03-14T17:05:55;99327.81;;;5.58;62.53
4392;BME280;2210;51.938;8.488;2023-03-14T17:09:58;99327.19;;;5.56;61.92
4392;BME280;2210;51.938;8.488;2023-03-14T17:13:59;99339.09;;;5.50;63.66
4392;BME280;2210;51.938;8.488;2023-03-14T17:18:00;99359.75;;;5.46;64.82
4392;BME280;2210;51.938;8.488;2023-03-14T17:22:02;99376.25;;;5.39;66.19
4392;BME280;2210;51.938;8.488;2023-03-14T17:26:05;99396.53;;;5.31;67.32
4392;BME280;2210;51.938;8.488;2023-03-14T17:30:12;99404.00;;;5.24;66.13
4392;BME280;2210;51.938;8.488;2023-03-14T17:34:12;99416.91;;;5.17;64.08
4392;BME280;2210;51.938;8.488;2023-03-14T17:38:12;99419.50;;;5.12;62.49
4392;BME280;2210;51.938;8.488;2023-03-14T17:42:13;99438.22;;;5.08;62.39
4392;BME280;2210;51.938;8.488;2023-03-14T17:46:13;99439.16;;;5.02;61.37
4392;BME280;2210;51.938;8.488;2023-03-14T17:50:14;99467.28;;;5.02;61.88
4392;BME280;2210;51.938;8.488;2023-03-14T17:54:15;99475.09;;;4.99;61.85
4392;BME280;2210;51.938;8.488;2023-03-14T17:58:15;99482.06;;;4.95;61.16
4392;BME280;2210;51.938;8.488;2023-03-14T18:02:15;99490.19;;;4.83;61.92
4392;BME280;2210;51.938;8.488;2023-03-14T18:06:16;99497.16;;;4.79;61.32
4392;BME280;2210;51.938;8.488;2023-03-14T18:10:16;99515.91;;;4.75;63.29
4392;BME280;2210;51.938;8.488;2023-03-14T18:14:19;99525.81;;;4.69;63.27
4392;BME280;2210;51.938;8.488;2023-03-14T18:18:20;99537.63;;;4.63;64.81
4392;BME280;2210;51.938;8.488;2023-03-14T18:22:20;99549.31;;;4.70;68.67
4392;BME280;2210;51.938;8.488;2023-03-14T18:26:20;99546.53;;;4.52;69.19
4392;BME280;2210;51.938;8.488;2023-03-14T18:30:32;99560.06;;;4.40;68.44
4392;BME280;2210;51.938;8.488;2023-03-14T18:34:33;99563.78;;;4.46;67.66
4392;BME280;2210;51.938;8.488;2023-03-14T18:38:33;99567.56;;;4.45;65.40
4392;BME280;2210;51.938;8.488;2023-03-14T18:42:37;99581.88;;;4.40;65.23
4392;BME280;2210;51.938;8.488;2023-03-14T18:46:37;99588.16;;;4.41;66.73
4392;BME280;2210;51.938;8.488;2023-03-14T18:50:37;99593.91;;;4.32;67.90
4392;BME280;2210;51.938;8.488;2023-03-14T18:54:37;99606.75;;;4.25;66.10
4392;BME280;2210;51.938;8.488;2023-03-14T18:58:39;99613.63;;;4.34;70.68
4392;BME280;2210;51.938;8.488;2023-03-14T19:02:42;99622.34;;;4.18;71.82
4392;BME280;2210;51.938;8.488;2023-03-14T19:06:45;99638.31;;;4.08;69.10
4392;BME280;2210;51.938;8.488;2023-03-14T19:10:57;99642.91;;;4.14;67.73
4392;BME280;2210;51.938;8.488;2023-03-14T19:15:00;99646.91;;;4.11;67.95
4392;BME280;2210;51.938;8.488;2023-03-14T19:19:00;99658.44;;;4.13;68.98
4392;BME280;2210;51.938;8.488;2023-03-14T19:23:00;99655.91;;;4.12;68.07
4392;BME280;2210;51.938;8.488;2023-03-14T19:27:01;99672.28;;;4.12;70.54
4392;BME280;2210;51.938;8.488;2023-03-14T19:31:04;99667.28;;;4.09;69.26
4392;BME280;2210;51.938;8.488;2023-03-14T19:35:05;99680.28;;;4.00;69.73
4392;BME280;2210;51.938;8.488;2023-03-14T19:39:05;99695.81;;;4.06;71.67
4392;BME280;2210;51.938;8.488;2023-03-14T19:43:06;99701.28;;;3.99;70.93
4392;BME280;2210;51.938;8.488;2023-03-14T19:47:12;99707.59;;;3.93;70.66
4392;BME280;2210;51.938;8.488;2023-03-14T19:51:13;99717.00;;;3.97;71.36
4392;BME280;2210;51.938;8.488;2023-03-14T19:55:14;99715.38;;;3.90;70.96
4392;BME280;2210;51.938;8.488;2023-03-14T19:59:14;99730.47;;;3.92;70.72
4392;BME280;2210;51.938;8.488;2023-03-14T20:03:18;99732.13;;;3.93;71.57
4392;BME280;2210;51.938;8.488;2023-03-14T20:07:18;99740.31;;;3.93;71.78
4392;BME280;2210;51.938;8.488;2023-03-14T20:11:19;99751.41;;;3.98;72.99
4392;BME280;2210;51.938;8.488;2023-03-14T20:15:19;99753.78;;;3.88;73.30
4392;BME280;2210;51.938;8.488;2023-03-14T20:19:20;99766.09;;;3.97;74.95
4392;BME280;2210;51.938;8.488;2023-03-14T20:23:22;99776.84;;;3.92;76.19
4392;BME280;2210;51.938;8.488;2023-03-14T20:27:25;99784.16;;;3.85;77.17
4392;BME280;2210;51.938;8.488;2023-03-14T20:31:31;99781.88;;;3.82;81.57
4392;BME280;2210;51.938;8.488;2023-03-14T20:35:33;99791.53;;;3.64;83.00
4392;BME280;2210;51.938;8.488;2023-03-14T20:39:33;99791.31;;;3.59;83.70
4392;BME280;2210;51.938;8.488;2023-03-14T20:43:33;99797.84;;;3.58;82.37
4392;BME280;2210;51.938;8.488;2023-03-14T20:47:34;99804.13;;;3.59;82.99
4392;BME280;2210;51.938;8.488;2023-03-14T20:51:35;99809.13;;;3.48;83.56
4392;BME280;2210;51.938;8.488;2023-03-14T20:55:35;99813.09;;;3.46;84.78
4392;BME280;2210;51.938;8.488;2023-03-14T20:59:35;99820.25;;;3.47;86.66
4392;BME280;2210;51.938;8.488;2023-03-14T21:03:39;99829.06;;;3.42;87.20
4392;BME280;2210;51.938;8.488;2023-03-14T21:07:39;99824.63;;;3.34;90.21
4392;BME280;2210;51.938;8.488;2023-03-14T21:11:46;99832.59;;;3.29;89.32
4392;BME280;2210;51.938;8.488;2023-03-14T21:15:47;99836.56;;;3.27;89.95
4392;BME280;2210;51.938;8.488;2023-03-14T21:19:47;99837.16;;;3.15;92.25
4392;BME280;2210;51.938;8.488;2023-03-14T21:23:48;99836.13;;;3.10;92.22
4392;BME280;2210;51.938;8.488;2023-03-14T21:27:56;99843.06;;;3.19;93.65
4392;BME280;2210;51.938;8.488;2023-03-14T21:31:56;99839.06;;;3.28;92.70
4392;BME280;2210;51.938;8.488;2023-03-14T21:35:56;99837.19;;;3.22;91.91
4392;BME280;2210;51.938;8.488;2023-03-14T21:39:57;99846.16;;;3.16;91.93
4392;BME280;2210;51.938;8.488;2023-03-14T21:43:57;99848.66;;;3.04;93.45
4392;BME280;2210;51.938;8.488;2023-03-14T21:48:00;99845.94;;;3.04;93.85
4392;BME280;2210;51.938;8.488;2023-03-14T21:52:01;99850.91;;;2.87;94.01
4392;BME280;2210;51.938;8.488;2023-03-14T21:56:13;99848.22;;;2.94;92.79
4392;BME280;2210;51.938;8.488;2023-03-14T22:00:16;99843.22;;;2.97;89.94
4392;BME280;2210;51.938;8.488;2023-03-14T22:04:17;99849.69;;;2.96;90.86
4392;BME280;2210;51.938;8.488;2023-03-14T22:08:17;99859.31;;;2.92;92.13
4392;BME280;2210;51.938;8.488;2023-03-14T22:12:18;99861.19;;;2.85;92.60
4392;BME280;2210;51.938;8.488;2023-03-14T22:16:19;99863.88;;;2.78;92.15
4392;BME280;2210;51.938;8.488;2023-03-14T22:20:19;99859.66;;;2.76;94.00
4392;BME280;2210;51.938;8.488;2023-03-14T22:24:20;99877.19;;;2.66;95.26
4392;BME280;2210;51.938;8.488;2023-03-14T22:28:23;99875.50;;;2.65;96.98
4392;BME280;2210;51.938;8.488;2023-03-14T22:32:42;99876.72;;;2.56;96.49
4392;BME280;2210;51.938;8.488;2023-03-14T22:36:42;99875.06;;;2.55;95.95
4392;BME280;2210;51.938;8.488;2023-03-14T22:40:42;99879.03;;;2.52;94.97
4392;BME280;2210;51.938;8.488;2023-03-14T22:44:46;99883.34;;;2.47;94.45
4392;BME280;2210;51.938;8.488;2023-03-14T22:48:46;99889.22;;;2.44;94.18
4392;BME280;2210;51.938;8.488;2023-03-14T22:52:46;99895.22;;;2.32;94.40
4392;BME280;2210;51.938;8.488;2023-03-14T22:56:46;99897.97;;;2.39;94.40
4392;BME280;2210;51.938;8.488;2023-03-14T23:00:47;99895.06;;;2.41;93.21